This is the latest recevied weather packets stored in our database for station/object K7YVO. If no packets are shown the sender has not sent any weather packets the latest 10 day(s).
| Time | Temp. | Humidity | Pressure | Rain* | Wind** | Luminosity | Snow |
|---|---|---|---|---|---|---|---|
| 1777669768 | 20.56° C | 56% | 1018.2 hPa | 0 mm | - | 694 W/m² | - |
| 1777669161 | 19.44° C | 59% | 1018.2 hPa | 0 mm | - | 590 W/m² | - |
| 1777667947 | 19.44° C | 59% | 1018.5 hPa | 0 mm | - | 535 W/m² | - |
| 1777665524 | 18.33° C | 62% | 1018.2 hPa | 0 mm | - | 684 W/m² | - |
| 1777664308 | 18.89° C | 62% | 1018.4 hPa | 0 mm | - | 379 W/m² | - |
| 1777663704 | 18.33° C | 64% | 1018.7 hPa | 0 mm | - | 630 W/m² | - |
| 1777663401 | 17.78° C | 65% | 1018.7 hPa | 0 mm | - | 616 W/m² | - |
| 1777663097 | 18.33° C | 64% | 1018.5 hPa | 0 mm | - | 597 W/m² | - |
| 1777660661 | 16.67° C | 66% | 1018.8 hPa | 0 mm | - | 588 W/m² | - |
| 1777660358 | 16.67° C | 68% | 1018.9 hPa | 0 mm | - | 586 W/m² | - |
| 1777660054 | 16.67° C | 68% | 1018.8 hPa | 0 mm | - | 582 W/m² | - |
| 1777659751 | 16.67° C | 68% | 1018.9 hPa | 0 mm | - | 591 W/m² | - |
| 1777659448 | 16.11° C | 69% | 1018.7 hPa | 0 mm | - | 541 W/m² | - |
| 1777659146 | 16.11° C | 69% | 1018.9 hPa | 0 mm | - | 578 W/m² | - |
| 1777658843 | 16.11° C | 70% | 1018.8 hPa | 0 mm | - | 608 W/m² | - |
| 1777658539 | 16.11° C | 69% | 1018.8 hPa | 0 mm | - | 532 W/m² | - |
| 1777657933 | 15.56° C | 69% | 1019 hPa | 0 mm | - | 588 W/m² | - |
| 1777657024 | 15° C | 72% | 1018.9 hPa | 0 mm | - | 425 W/m² | - |
| 1777656721 | 15° C | 73% | 1018.8 hPa | 0 mm | - | 499 W/m² | - |
| 1777656417 | 15° C | 73% | 1018.8 hPa | 0 mm | - | 413 W/m² | - |
| 1777656112 | 14.44° C | 74% | 1018.7 hPa | 0 mm | - | 348 W/m² | - |
| 1777655505 | 15° C | 72% | 1018.9 hPa | 0 mm | - | 152 W/m² | - |
| 1777655202 | 14.44° C | 73% | 1018.9 hPa | 0 mm | - | 151 W/m² | - |
| 1777654597 | 14.44° C | 75% | 1019 hPa | 0 mm | - | 156 W/m² | - |
| 1777654294 | 14.44° C | 74% | 1018.9 hPa | 0 mm | - | 161 W/m² | - |
* Rain latest hour (hover to see other rain measurements)
** Current wind speed in m/s (hover to see current wind gust speed)